Aeroporto :
LOGIN :

Iscrizione | Disclaimer

   EN    FR    IT 

 










Sommario :    VFR   VFR Marginale   IFR   IFR Intensivo   IFR Molto Intensivo
Visibilità : 
Base nubi : 
>= 8 km
>= 3000ft
5 / 8 km
1000 / 3000 ft
1500m / 5 km
500 / 1000 ft
800 / 1500m
200 / 500 ft
< 800m
< 200 ft
Simboli :   Temporali  Nebbia  Neve Forte  Precipitazioni Forti  Vento > 20 kt
SIGMETs :   Varie  Temporali  Ghiacco  Turbolenza  Onda orograficha  Ceneri Vulcaniche






- Altitudine del aeroporto : 597 ft
- Codice IATA : PDV


LBPD - Plovdiv

ULTIMO METAR :
  • 131100Z AUTO 14006KT 060V210 9999 FEW130/// 35/12 Q1011 NOSIG

METARs OBSOLETI :
  • 131030Z AUTO VRB05KT 9999 FEW062/// SCT210/// 35/12 Q1012 NOSIG
  • 131000Z AUTO VRB06KT 9999 FEW120/// SCT230/// 35/12 Q1012 NOSIG
  • 130930Z AUTO 15007KT 070V240 9999 FEW200/// 34/12 Q1012 NOSIG
  • 130900Z AUTO 06005KT 010V110 9999 FEW140/// 34/11 Q1012 NOSIG
  • 130830Z AUTO VRB04KT 9999 NCD 33/11 Q1012 NOSIG
  • 130800Z AUTO 32005KT 250V040 9999 NCD 33/13 Q1012 NOSIG
  • 130730Z AUTO 33005KT 280V360 9999 NCD 31/14 Q1012 NOSIG
  • 130700Z AUTO 30005KT 260V340 9999 FEW240/// 30/13 Q1013 NOSIG
  • 130630Z AUTO VRB02KT 9999 NCD 29/13 Q1012 NOSIG

TAF TAF LBPD
Valido dal 13 a 06 ore il 14 a 06 ore UTC


130500Z 1306/1406 VRB04KT CAVOK
BECMG 1309/1311 09010KT
BECMG 1318/1320 VRB04KT



MetMap, La meteo Aeronautica in un colpo d'occhio ! - Copyright ORBIFLY Dicembre 2007 - Disclaimer

ORBIFLY MET'MAP TEAM :

Programmazione e sviluppo : Alexandra Zaïnal
Concezione : Baudouin d'Aumeries
Supporto tecnico e logistico : Manuel Goepfert
Aiuto : Marc-Olivier Méhu
Aiuto per la traduzione : Arnaldo La Scala




FONTI E CREDITI :

   NOAA